Time;durP1;ratioP1;P1;durP2;ratioP2;P2;SDS_P1;SDS_P2;PMS_P1;PMS_P2;Temp;Humidity;BMP_temperature;BMP_pressure;BME280_temperature;BME280_humidity;BME280_pressure;Samples;Min_cycle;Max_cycle;Signal;HPM_P1;HPM_P2
2024/02/25 00:01:36;;;;;;;2.80;0.90;;;4.30;99.90;;;;;;4934681;29;20123;-66
2024/02/25 00:04:02;;;;;;;1.30;1.17;;;4.30;99.90;;;;;;4935072;29;20035;-66
2024/02/25 00:06:28;;;;;;;1.80;0.82;;;4.20;99.90;;;;;;4948065;29;20106;-66
2024/02/25 00:08:54;;;;;;;1.23;1.13;;;4.20;99.90;;;;;;4918315;29;20106;-66
2024/02/25 00:11:20;;;;;;;6.55;0.90;;;4.10;99.90;;;;;;4932134;29;20576;-66
2024/02/25 00:13:46;;;;;;;1.40;0.80;;;4.20;99.90;;;;;;4933479;29;20495;-66
2024/02/25 00:16:11;;;;;;;0.95;0.40;;;4.20;99.90;;;;;;4931912;29;20113;-66
2024/02/25 00:18:37;;;;;;;0.63;0.30;;;4.20;99.90;;;;;;4935034;29;20036;-66
2024/02/25 00:21:03;;;;;;;0.40;0.38;;;4.10;99.90;;;;;;4933982;29;20047;-66
2024/02/25 00:23:29;;;;;;;0.73;0.65;;;4.10;99.90;;;;;;4933703;29;20032;-66
2024/02/25 00:25:55;;;;;;;2.50;1.13;;;4.10;99.90;;;;;;4933122;29;20074;-66
2024/02/25 00:28:20;;;;;;;0.30;0.30;;;4.10;99.90;;;;;;4933452;29;20024;-66
2024/02/25 00:30:46;;;;;;;1.38;0.90;;;4.10;99.90;;;;;;4933276;29;20046;-66
2024/02/25 00:33:12;;;;;;;0.63;0.57;;;4.10;99.90;;;;;;4934619;29;20063;-66
2024/02/25 00:35:37;;;;;;;0.82;0.60;;;4.10;99.90;;;;;;4932671;29;20423;-66
2024/02/25 00:38:03;;;;;;;2.28;1.00;;;4.10;99.90;;;;;;4934544;29;20034;-66
2024/02/25 00:40:31;;;;;;;1.33;0.93;;;4.10;99.90;;;;;;4931648;29;20050;-66
2024/02/25 00:42:57;;;;;;;1.35;0.50;;;4.20;99.90;;;;;;4932936;29;20036;-66
2024/02/25 00:45:22;;;;;;;0.52;0.45;;;4.30;99.90;;;;;;4932893;29;20034;-66
2024/02/25 00:47:48;;;;;;;0.43;0.43;;;4.30;99.90;;;;;;4933275;29;20699;-66
2024/02/25 00:50:14;;;;;;;4.30;0.85;;;4.30;99.90;;;;;;4932345;29;20024;-66
2024/02/25 00:52:40;;;;;;;0.43;0.40;;;4.30;99.90;;;;;;4933165;29;20027;-66
2024/02/25 00:55:06;;;;;;;0.52;0.32;;;4.30;99.90;;;;;;4932559;29;20424;-65
2024/02/25 00:57:37;;;;;;;0.73;0.73;;;4.30;99.90;;;;;;4934394;29;20035;-66
2024/02/25 01:00:03;;;;;;;0.73;0.35;;;4.40;99.90;;;;;;4932639;29;20393;-66
2024/02/25 01:02:29;;;;;;;0.55;0.30;;;4.40;99.90;;;;;;4932508;29;20517;-66
2024/02/25 01:04:55;;;;;;;1.30;0.85;;;4.40;99.90;;;;;;4932089;29;20063;-65
2024/02/25 01:07:21;;;;;;;0.55;0.55;;;4.50;99.90;;;;;;4933664;29;20102;-65
2024/02/25 01:09:46;;;;;;;0.73;0.50;;;4.50;99.90;;;;;;4932963;29;20032;-65
2024/02/25 01:12:12;;;;;;;0.73;0.50;;;4.60;99.90;;;;;;4933513;29;20060;-65
2024/02/25 01:14:41;;;;;;;0.68;0.68;;;4.60;99.90;;;;;;4933537;29;20488;-65
2024/02/25 01:17:07;;;;;;;0.65;0.50;;;4.50;99.90;;;;;;4932918;29;20614;-65
2024/02/25 01:19:33;;;;;;;0.77;0.63;;;4.50;99.90;;;;;;4933951;29;20027;-65
2024/02/25 01:21:58;;;;;;;0.80;0.40;;;4.50;99.90;;;;;;4934272;29;20664;-66
2024/02/25 01:24:24;;;;;;;2.00;0.35;;;4.60;99.90;;;;;;4933814;29;20030;-66
2024/02/25 01:26:50;;;;;;;1.70;0.90;;;4.70;99.90;;;;;;4932277;29;20110;-66
2024/02/25 01:29:16;;;;;;;0.77;0.50;;;4.70;99.90;;;;;;4934307;29;20032;-65
2024/02/25 01:31:46;;;;;;;0.47;0.38;;;4.70;99.90;;;;;;4931712;29;20400;-65
2024/02/25 01:34:12;;;;;;;0.63;0.63;;;4.80;99.90;;;;;;4932061;29;20066;-65
2024/02/25 01:36:41;;;;;;;1.13;0.68;;;4.80;99.90;;;;;;4946409;28;20497;-66
2024/02/25 01:39:07;;;;;;;0.22;0.22;;;4.80;99.90;;;;;;4933979;29;20043;-66
2024/02/25 01:41:33;;;;;;;0.52;0.35;;;4.80;99.90;;;;;;4931500;29;20059;-66
2024/02/25 01:43:59;;;;;;;0.45;0.35;;;4.90;99.90;;;;;;4932678;29;20500;-66
2024/02/25 01:46:25;;;;;;;0.47;0.43;;;4.90;99.90;;;;;;4930668;29;20024;-66
2024/02/25 01:48:51;;;;;;;2.90;0.68;;;4.90;99.90;;;;;;4932462;29;20023;-66
2024/02/25 01:51:21;;;;;;;0.20;0.20;;;4.90;99.90;;;;;;4930108;29;20036;-66
2024/02/25 01:53:50;;;;;;;0.10;0.10;;;5.00;99.90;;;;;;4932091;29;20063;-66
2024/02/25 01:56:20;;;;;;;6.13;0.57;;;5.10;99.90;;;;;;4946485;28;20039;-66
2024/02/25 01:58:52;;;;;;;0.22;0.22;;;5.10;99.90;;;;;;4933721;29;20056;-66
2024/02/25 02:01:19;;;;;;;0.77;0.43;;;5.10;99.90;;;;;;4930278;29;20027;-66
2024/02/25 02:03:45;;;;;;;0.20;0.20;;;5.10;99.90;;;;;;4940895;29;20024;-66
2024/02/25 02:06:12;;;;;;;0.45;0.25;;;5.20;99.90;;;;;;4932957;28;20036;-66
2024/02/25 02:08:38;;;;;;;0.25;0.25;;;5.30;99.90;;;;;;4950853;28;20055;-66
2024/02/25 02:11:20;;;;;;;1.02;0.50;;;5.30;99.90;;;;;;4939467;28;20046;-65
2024/02/25 02:13:47;;;;;;;0.60;0.38;;;5.30;99.90;;;;;;4934246;29;20031;-65
2024/02/25 02:16:15;;;;;;;0.50;0.43;;;5.40;99.90;;;;;;4932630;29;20729;-66
2024/02/25 02:18:42;;;;;;;0.80;0.50;;;5.40;99.90;;;;;;4933314;29;20063;-66
2024/02/25 02:21:15;;;;;;;0.40;0.40;;;5.40;99.90;;;;;;4931294;29;20032;-66
2024/02/25 02:23:41;;;;;;;0.63;0.50;;;5.40;99.90;;;;;;4939549;29;20050;-66
2024/02/25 02:26:07;;;;;;;0.73;0.20;;;5.40;99.90;;;;;;4932245;28;20485;-66
2024/02/25 02:28:32;;;;;;;0.35;0.30;;;5.50;99.90;;;;;;4932019;29;20408;-66
2024/02/25 02:30:58;;;;;;;1.08;0.52;;;5.50;99.90;;;;;;4931483;29;20046;-66
2024/02/25 02:33:24;;;;;;;0.30;0.30;;;5.50;99.90;;;;;;4933174;29;20024;-66
2024/02/25 02:35:51;;;;;;;1.13;0.47;;;5.40;99.90;;;;;;4929739;29;20110;-66
2024/02/25 02:38:17;;;;;;;0.60;0.55;;;5.40;99.90;;;;;;4947772;29;20024;-66
2024/02/25 02:40:44;;;;;;;1.20;0.88;;;5.50;99.90;;;;;;4937197;29;20074;-66
2024/02/25 02:43:10;;;;;;;0.63;0.63;;;5.50;99.90;;;;;;4933637;28;20020;-66
2024/02/25 02:45:37;;;;;;;0.20;0.20;;;5.50;99.90;;;;;;4929810;29;20039;-66
2024/02/25 02:48:05;;;;;;;1.17;0.32;;;5.50;99.90;;;;;;4932017;29;20476;-66
2024/02/25 02:50:32;;;;;;;4.65;0.20;;;5.50;99.90;;;;;;4930113;29;20536;-65
2024/02/25 02:52:57;;;;;;;1.42;1.17;;;5.50;99.90;;;;;;4931652;29;20167;-65
2024/02/25 02:55:23;;;;;;;0.13;0.13;;;5.50;99.90;;;;;;4931376;29;20110;-66
2024/02/25 02:57:49;;;;;;;0.30;0.20;;;5.50;99.90;;;;;;4936378;29;20409;-66
2024/02/25 03:00:15;;;;;;;1.02;0.55;;;5.50;99.90;;;;;;4934932;29;20541;-66
2024/02/25 03:02:41;;;;;;;0.55;0.40;;;5.50;99.90;;;;;;4936402;29;20036;-66
2024/02/25 03:05:07;;;;;;;0.40;0.40;;;5.40;99.90;;;;;;4934269;29;20095;-66
2024/02/25 03:07:33;;;;;;;0.30;0.30;;;5.30;99.90;;;;;;4936734;29;20035;-66
2024/02/25 03:09:59;;;;;;;0.93;0.70;;;5.30;99.90;;;;;;4933329;29;20036;-66
2024/02/25 03:12:25;;;;;;;0.10;0.10;;;5.30;99.90;;;;;;4936774;29;20020;-66
2024/02/25 03:14:50;;;;;;;1.30;0.57;;;5.40;99.90;;;;;;4934909;29;20060;-66
2024/02/25 03:17:18;;;;;;;0.00;0.00;;;5.30;99.90;;;;;;4936064;29;20059;-66
2024/02/25 03:19:43;;;;;;;0.57;0.20;;;5.20;99.90;;;;;;4950432;28;20689;-66
2024/02/25 03:22:09;;;;;;;0.85;0.45;;;5.20;99.90;;;;;;4951670;28;20028;-66
2024/02/25 03:24:36;;;;;;;0.30;0.30;;;5.20;99.90;;;;;;4941372;28;20023;-66
2024/02/25 03:27:03;;;;;;;1.33;0.68;;;5.20;99.90;;;;;;4934617;29;20031;-66
2024/02/25 03:29:29;;;;;;;0.20;0.20;;;5.20;99.90;;;;;;4936253;29;20034;-66
2024/02/25 03:31:54;;;;;;;1.25;0.55;;;5.20;99.90;;;;;;4934079;29;20032;-66
2024/02/25 03:34:20;;;;;;;0.45;0.40;;;5.10;99.90;;;;;;4934473;29;20035;-66
2024/02/25 03:36:46;;;;;;;0.90;0.52;;;5.20;99.90;;;;;;4932528;29;20047;-66
2024/02/25 03:39:12;;;;;;;0.30;0.30;;;5.10;99.90;;;;;;4935784;29;20102;-66
2024/02/25 03:41:37;;;;;;;1.25;0.70;;;5.10;99.90;;;;;;4933959;29;20035;-66
2024/02/25 03:44:03;;;;;;;2.03;0.90;;;5.10;99.90;;;;;;4935347;29;20035;-66
2024/02/25 03:46:29;;;;;;;0.35;0.30;;;5.00;99.90;;;;;;4934088;29;20032;-66
2024/02/25 03:48:55;;;;;;;2.78;1.15;;;4.90;99.90;;;;;;4934259;29;20091;-66
2024/02/25 03:51:21;;;;;;;2.55;0.50;;;4.90;99.90;;;;;;4933393;29;20365;-66
2024/02/25 03:53:47;;;;;;;1.05;0.50;;;5.00;99.90;;;;;;4953896;28;20034;-66
2024/02/25 03:56:12;;;;;;;1.75;0.57;;;5.00;99.90;;;;;;4933751;29;20092;-66
2024/02/25 03:58:38;;;;;;;0.52;0.30;;;5.00;99.90;;;;;;4934237;29;20035;-66
2024/02/25 04:01:05;;;;;;;2.08;0.57;;;5.00;99.90;;;;;;4931694;29;20031;-66
2024/02/25 04:03:31;;;;;;;0.55;0.32;;;5.00;99.90;;;;;;4935610;29;20087;-66
2024/02/25 04:05:56;;;;;;;1.58;0.68;;;5.00;99.90;;;;;;4932138;29;20079;-66
2024/02/25 04:08:23;;;;;;;1.35;0.98;;;5.00;99.90;;;;;;4935270;29;20508;-66
2024/02/25 04:10:49;;;;;;;0.80;0.80;;;5.00;99.90;;;;;;4948130;28;20028;-66
2024/02/25 04:13:15;;;;;;;0.77;0.40;;;5.00;99.90;;;;;;4941548;29;20061;-66
2024/02/25 04:15:42;;;;;;;0.50;0.40;;;5.00;99.90;;;;;;4937850;29;20038;-65
2024/02/25 04:18:07;;;;;;;7.65;0.50;;;5.10;99.90;;;;;;4936306;29;20039;-66
2024/02/25 04:20:35;;;;;;;0.57;0.35;;;5.00;99.90;;;;;;4936261;29;20040;-66
2024/02/25 04:23:01;;;;;;;0.43;0.43;;;5.00;99.90;;;;;;4934932;29;20036;-66
2024/02/25 04:25:26;;;;;;;0.73;0.52;;;5.00;99.90;;;;;;4933424;29;20477;-66
2024/02/25 04:27:52;;;;;;;2.40;0.90;;;5.00;99.90;;;;;;4935131;29;20034;-66
2024/02/25 04:30:18;;;;;;;1.15;0.55;;;5.00;99.90;;;;;;4933271;29;20051;-66
2024/02/25 04:32:46;;;;;;;1.13;0.93;;;5.00;99.90;;;;;;4934854;29;20035;-66
2024/02/25 04:35:12;;;;;;;0.70;0.35;;;5.00;99.90;;;;;;4932194;29;20083;-66
2024/02/25 04:37:38;;;;;;;0.77;0.50;;;5.00;99.90;;;;;;4935018;29;20137;-66
2024/02/25 04:40:05;;;;;;;3.03;1.15;;;5.00;99.90;;;;;;4932762;29;20497;-66
2024/02/25 04:42:31;;;;;;;2.75;1.20;;;5.00;99.90;;;;;;4934848;29;20102;-66
2024/02/25 04:44:56;;;;;;;1.75;0.88;;;5.00;99.90;;;;;;4932798;29;20074;-66
2024/02/25 04:47:22;;;;;;;1.15;0.90;;;4.90;99.90;;;;;;4933826;29;20051;-66
2024/02/25 04:49:48;;;;;;;0.52;0.47;;;4.90;99.90;;;;;;4933485;29;20057;-66
2024/02/25 04:52:14;;;;;;;0.55;0.40;;;4.90;99.90;;;;;;4934129;29;20461;-66
2024/02/25 04:54:42;;;;;;;0.55;0.32;;;4.90;99.90;;;;;;4934110;29;20115;-66
2024/02/25 04:57:08;;;;;;;0.70;0.65;;;4.90;99.90;;;;;;4948293;29;20089;-66
2024/02/25 04:59:34;;;;;;;0.20;0.20;;;4.90;99.90;;;;;;4933363;29;20473;-66
2024/02/25 05:02:00;;;;;;;0.68;0.50;;;4.90;99.90;;;;;;4932280;29;20556;-65
2024/02/25 05:04:25;;;;;;;0.75;0.45;;;4.90;99.90;;;;;;4934389;29;20354;-67
2024/02/25 05:06:51;;;;;;;0.30;0.25;;;4.90;99.90;;;;;;4932920;29;20116;-66
2024/02/25 05:09:17;;;;;;;1.15;0.50;;;4.90;99.90;;;;;;4934159;29;20031;-65
2024/02/25 05:11:43;;;;;;;0.75;0.47;;;5.00;99.90;;;;;;4932396;29;20552;-65
2024/02/25 05:14:08;;;;;;;0.70;0.30;;;5.00;99.90;;;;;;4935065;29;20444;-66
2024/02/25 05:16:34;;;;;;;0.35;0.25;;;5.10;99.90;;;;;;4939670;29;20485;-66
2024/02/25 05:19:00;;;;;;;0.22;0.22;;;5.10;99.90;;;;;;4931930;29;20035;-65
2024/02/25 05:21:25;;;;;;;0.80;0.40;;;5.10;99.90;;;;;;4932150;29;20035;-65
2024/02/25 05:23:51;;;;;;;0.70;0.47;;;5.20;99.90;;;;;;4932592;29;20024;-66
2024/02/25 05:26:17;;;;;;;0.70;0.60;;;5.20;99.90;;;;;;4946145;29;20027;-66
2024/02/25 05:28:43;;;;;;;0.32;0.32;;;5.20;99.90;;;;;;4948827;29;20034;-65
2024/02/25 05:31:14;;;;;;;4.13;0.52;;;5.30;99.90;;;;;;4953628;28;20044;-66
2024/02/25 05:33:39;;;;;;;;;;;5.30;99.90;;;;;;4933342;29;20142;-66
2024/02/25 05:36:06;;;;;;;2.35;0.60;;;5.30;99.90;;;;;;4946147;29;19997;-66
2024/02/25 05:38:32;;;;;;;0.82;0.55;;;5.30;99.90;;;;;;4933932;29;20030;-65
2024/02/25 05:40:57;;;;;;;1.13;0.82;;;5.40;99.90;;;;;;4946660;28;20036;-66
2024/02/25 05:43:24;;;;;;;2.25;0.52;;;5.40;99.90;;;;;;4933908;29;20038;-66
2024/02/25 05:45:50;;;;;;;0.98;0.40;;;5.40;99.90;;;;;;4931915;29;20024;-66
2024/02/25 05:48:15;;;;;;;1.67;0.60;;;5.50;99.90;;;;;;4933867;29;20167;-66
2024/02/25 05:50:41;;;;;;;0.85;0.70;;;5.50;99.90;;;;;;4932066;29;20597;-66
2024/02/25 05:53:07;;;;;;;0.43;0.43;;;5.40;99.90;;;;;;4933708;29;20034;-65
2024/02/25 05:55:33;;;;;;;1.90;1.23;;;5.50;99.90;;;;;;4930019;29;20504;-66
2024/02/25 05:57:59;;;;;;;1.27;1.05;;;5.50;99.90;;;;;;4932427;29;20102;-66
2024/02/25 06:00:24;;;;;;;2.83;0.88;;;5.50;99.90;;;;;;4930385;29;20035;-66
2024/02/25 06:02:50;;;;;;;1.17;1.00;;;5.50;99.90;;;;;;4933796;29;20517;-66
2024/02/25 06:05:17;;;;;;;0.75;0.60;;;5.50;99.90;;;;;;4930085;29;20074;-66
2024/02/25 06:07:44;;;;;;;1.67;1.00;;;5.40;99.90;;;;;;4932960;29;20111;-66
2024/02/25 06:10:10;;;;;;;1.02;0.73;;;5.40;99.90;;;;;;4937751;29;20032;-66
2024/02/25 06:12:37;;;;;;;1.40;0.90;;;5.30;99.90;;;;;;4933901;29;20028;-66
2024/02/25 06:15:13;;;;;;;0.90;0.90;;;5.30;99.90;;;;;;4947130;28;20039;-66
2024/02/25 06:17:40;;;;;;;1.52;0.90;;;5.30;99.90;;;;;;4937593;29;20070;-66
2024/02/25 06:20:08;;;;;;;2.60;0.80;;;5.20;99.90;;;;;;4930026;29;20120;-66
2024/02/25 06:22:35;;;;;;;0.80;0.63;;;5.20;99.90;;;;;;4933462;29;20062;-66
2024/02/25 06:25:05;;;;;;;1.33;0.52;;;5.20;99.90;;;;;;4931096;29;20511;-65
2024/02/25 06:27:39;;;;;;;2.80;0.63;;;5.10;99.90;;;;;;4933842;29;20580;-66
2024/02/25 06:30:07;;;;;;;1.90;1.35;;;5.10;99.90;;;;;;4932195;29;20552;-66
2024/02/25 06:32:34;;;;;;;0.50;0.50;;;5.10;99.90;;;;;;4935898;29;20115;-66
2024/02/25 06:35:03;;;;;;;1.08;0.47;;;5.10;99.90;;;;;;4933392;29;20039;-66
2024/02/25 06:37:29;;;;;;;1.15;0.90;;;5.10;99.90;;;;;;4935924;29;20028;-66
2024/02/25 06:39:55;;;;;;;1.58;1.00;;;5.10;99.90;;;;;;4934418;29;20074;-66
2024/02/25 06:42:21;;;;;;;1.20;0.98;;;5.10;99.90;;;;;;4935876;29;20067;-66
2024/02/25 06:44:47;;;;;;;0.40;0.40;;;5.10;99.90;;;;;;4935598;29;20087;-66
2024/02/25 06:47:12;;;;;;;1.10;1.00;;;5.10;99.90;;;;;;4936316;29;20723;-66
2024/02/25 06:49:42;;;;;;;1.77;1.38;;;5.20;99.90;;;;;;4936168;29;20064;-66
2024/02/25 06:52:09;;;;;;;0.85;0.55;;;5.20;99.90;;;;;;4933891;29;20564;-66
2024/02/25 06:54:35;;;;;;;1.05;0.95;;;5.10;99.90;;;;;;4935974;29;20031;-66
2024/02/25 06:57:01;;;;;;;1.20;0.77;;;5.20;99.90;;;;;;4935761;29;20055;-66
2024/02/25 06:59:27;;;;;;;2.42;0.93;;;5.20;99.90;;;;;;4936519;29;20032;-66
2024/02/25 07:01:52;;;;;;;1.50;1.38;;;5.10;99.90;;;;;;4948526;29;20040;-66
2024/02/25 07:04:19;;;;;;;0.65;0.50;;;5.20;99.90;;;;;;4934844;29;20032;-66
2024/02/25 07:06:45;;;;;;;1.75;0.75;;;5.20;99.90;;;;;;4934310;29;20027;-66
2024/02/25 07:09:11;;;;;;;2.20;0.63;;;5.20;99.90;;;;;;4937863;29;20397;-66
2024/02/25 07:11:37;;;;;;;0.40;0.40;;;5.10;99.90;;;;;;4936400;29;20393;-66
2024/02/25 07:14:02;;;;;;;3.65;0.82;;;5.10;99.90;;;;;;4935924;29;20039;-66
2024/02/25 07:19:04;;;;;;;1.60;1.15;;;5.00;99.90;;;;;;4972787;28;20055;-71
2024/02/25 07:21:29;;;;;;;0.47;0.47;;;5.10;99.90;;;;;;4974591;28;20088;-71
2024/02/25 07:23:55;;;;;;;0.60;0.60;;;5.10;99.90;;;;;;4971710;28;20042;-71
2024/02/25 07:26:21;;;;;;;0.63;0.60;;;5.10;99.90;;;;;;4974782;28;20034;-71
2024/02/25 07:28:46;;;;;;;0.30;0.30;;;5.20;99.90;;;;;;4971959;28;20384;-71
2024/02/25 07:31:19;;;;;;;3.28;0.88;;;5.20;99.90;;;;;;4974584;28;20030;-71
2024/02/25 07:33:47;;;;;;;1.73;1.23;;;5.20;99.90;;;;;;4972054;28;20038;-71
2024/02/25 07:36:15;;;;;;;2.42;1.20;;;5.20;99.90;;;;;;4973072;28;20091;-71
2024/02/25 07:38:41;;;;;;;1.55;1.08;;;5.30;99.90;;;;;;4972141;28;20033;-71
2024/02/25 07:41:08;;;;;;;2.17;1.50;;;5.30;99.90;;;;;;4974149;28;20442;-70
2024/02/25 07:43:36;;;;;;;1.20;1.00;;;5.30;99.90;;;;;;4973388;28;20134;-71
2024/02/25 07:46:03;;;;;;;1.17;0.50;;;5.40;99.90;;;;;;4972985;28;20725;-70
2024/02/25 07:48:29;;;;;;;1.20;0.77;;;5.40;99.90;;;;;;4974714;28;20522;-71
2024/02/25 07:50:54;;;;;;;1.58;1.13;;;5.40;99.90;;;;;;4974258;28;20048;-71
2024/02/25 07:53:20;;;;;;;1.42;0.75;;;5.40;99.90;;;;;;4975698;28;20539;-71
2024/02/25 07:55:46;;;;;;;5.55;0.65;;;5.40;99.90;;;;;;4973970;28;20078;-71
2024/02/25 07:58:12;;;;;;;1.88;0.90;;;5.40;99.90;;;;;;4978683;28;20471;-71
2024/02/25 08:00:37;;;;;;;3.63;0.77;;;5.50;99.90;;;;;;4974200;28;20483;-71
2024/02/25 08:03:04;;;;;;;2.13;1.25;;;5.60;99.90;;;;;;4971727;28;20455;-71
2024/02/25 08:05:30;;;;;;;3.53;1.75;;;5.60;99.90;;;;;;4974209;28;20030;-71
2024/02/25 08:07:55;;;;;;;0.73;0.70;;;5.70;99.90;;;;;;4971354;28;20031;-71
2024/02/25 08:10:21;;;;;;;2.15;1.10;;;5.70;99.90;;;;;;4980515;28;20030;-71
2024/02/25 08:12:48;;;;;;;0.60;0.60;;;5.70;99.90;;;;;;4972830;28;20058;-71
2024/02/25 08:15:14;;;;;;;1.33;0.98;;;5.80;99.90;;;;;;4988637;28;20041;-71
2024/02/25 08:17:40;;;;;;;14.07;1.40;;;5.80;99.90;;;;;;4971492;28;20118;-71
2024/02/25 08:20:07;;;;;;;2.13;1.05;;;5.90;99.90;;;;;;4973658;28;20110;-71
2024/02/25 08:22:36;;;;;;;3.40;1.00;;;5.90;99.90;;;;;;4981100;28;20506;-71
2024/02/25 08:25:02;;;;;;;1.35;0.82;;;5.90;99.90;;;;;;4972166;28;20026;-71
2024/02/25 08:27:32;;;;;;;1.48;0.88;;;5.90;99.90;;;;;;4985926;28;20104;-71
2024/02/25 08:30:07;;;;;;;1.65;0.68;;;6.00;99.90;;;;;;4975547;28;20023;-71
2024/02/25 08:32:33;;;;;;;1.85;1.10;;;6.00;99.90;;;;;;4971746;28;20031;-71
2024/02/25 08:34:59;;;;;;;1.02;0.90;;;6.10;99.90;;;;;;4975049;28;20084;-71
2024/02/25 08:37:26;;;;;;;2.28;1.20;;;6.20;99.90;;;;;;4977361;28;20085;-71
2024/02/25 08:39:53;;;;;;;1.75;1.23;;;6.30;99.90;;;;;;4972476;28;20027;-71
2024/02/25 08:42:20;;;;;;;0.90;0.70;;;6.30;99.90;;;;;;4969593;28;20038;-71
2024/02/25 08:44:47;;;;;;;2.85;1.02;;;6.40;99.90;;;;;;4972015;28;20093;-71
2024/02/25 08:47:13;;;;;;;1.60;0.82;;;6.50;99.90;;;;;;4973394;28;20027;-71
2024/02/25 08:49:39;;;;;;;0.70;0.70;;;6.50;99.90;;;;;;4972630;28;20398;-71
2024/02/25 08:52:05;;;;;;;2.92;0.95;;;6.60;99.90;;;;;;4974172;28;20105;-71
2024/02/25 08:54:32;;;;;;;1.33;0.70;;;6.70;99.90;;;;;;4977446;28;20391;-71
2024/02/25 08:56:58;;;;;;;1.55;0.80;;;6.80;99.90;;;;;;4968278;28;20053;-71
2024/02/25 08:59:24;;;;;;;1.02;0.52;;;6.80;99.90;;;;;;4969644;28;20475;-71
2024/02/25 09:01:50;;;;;;;2.30;1.35;;;6.90;99.90;;;;;;4959759;28;20035;-71
2024/02/25 09:04:18;;;;;;;1.40;1.05;;;6.90;99.90;;;;;;4979656;28;20064;-71
2024/02/25 09:06:44;;;;;;;0.95;0.75;;;6.90;99.90;;;;;;4973437;28;20026;-71
2024/02/25 09:09:10;;;;;;;0.80;0.50;;;6.90;99.90;;;;;;4957396;28;20034;-70
2024/02/25 09:11:36;;;;;;;0.45;0.45;;;6.90;99.90;;;;;;4970323;28;20078;-70
2024/02/25 09:14:02;;;;;;;3.05;0.85;;;7.10;99.90;;;;;;4970640;28;20048;-70
2024/02/25 09:16:30;;;;;;;0.50;0.50;;;7.10;99.90;;;;;;4979353;28;20082;-70
2024/02/25 09:18:56;;;;;;;0.80;0.57;;;7.20;99.90;;;;;;4970475;28;20043;-70
2024/02/25 09:21:22;;;;;;;2.55;1.10;;;7.30;99.90;;;;;;4972184;28;20027;-70
2024/02/25 09:23:48;;;;;;;1.00;0.75;;;7.50;99.90;;;;;;4973083;28;20082;-70
2024/02/25 09:26:14;;;;;;;1.52;0.75;;;7.60;99.90;;;;;;4967485;28;20058;-70
2024/02/25 09:28:40;;;;;;;1.30;0.85;;;7.60;99.90;;;;;;4968697;28;20070;-70
2024/02/25 09:31:06;;;;;;;1.23;0.82;;;7.50;99.90;;;;;;4968316;28;20110;-70
2024/02/25 09:33:34;;;;;;;0.40;0.40;;;7.50;99.90;;;;;;4974532;28;20038;-70
2024/02/25 09:36:00;;;;;;;9.38;0.90;;;7.60;99.90;;;;;;4964568;28;20048;-70
2024/02/25 09:38:28;;;;;;;1.13;0.57;;;7.70;99.90;;;;;;4960274;28;20035;-70
2024/02/25 09:41:02;;;;;;;2.70;1.15;;;7.70;99.90;;;;;;4975357;28;20038;-71
2024/02/25 09:43:28;;;;;;;1.38;0.60;;;7.80;99.90;;;;;;4966284;28;20152;-70
2024/02/25 09:45:57;;;;;;;0.70;0.63;;;7.90;99.90;;;;;;4972515;28;20460;-70
2024/02/25 09:48:26;;;;;;;0.57;0.45;;;7.80;99.90;;;;;;4966160;28;20027;-70
2024/02/25 09:50:53;;;;;;;3.63;0.60;;;7.90;99.90;;;;;;4956993;28;20094;-70
2024/02/25 09:53:23;;;;;;;0.30;0.22;;;8.00;99.90;;;;;;4957184;28;20027;-70
2024/02/25 09:55:49;;;;;;;2.10;0.88;;;7.90;99.90;;;;;;4956122;28;20035;-70
2024/02/25 09:58:16;;;;;;;0.90;0.73;;;7.80;99.90;;;;;;4974662;28;20505;-70
2024/02/25 10:00:42;;;;;;;4.25;0.95;;;8.10;99.90;;;;;;4972630;28;20035;-72
2024/02/25 10:03:11;;;;;;;0.40;0.35;;;8.40;99.90;;;;;;4956547;28;20097;-72
2024/02/25 10:05:37;;;;;;;0.45;0.28;;;8.60;99.90;;;;;;4973365;28;20029;-70
2024/02/25 10:08:07;;;;;;;1.95;0.60;;;8.60;99.90;;;;;;4974061;28;20031;-70
2024/02/25 10:10:34;;;;;;;0.60;0.43;;;8.70;99.90;;;;;;4993954;28;20126;-70
2024/02/25 10:13:03;;;;;;;0.08;0.08;;;8.90;99.90;;;;;;4995418;28;20093;-71
2024/02/25 10:15:29;;;;;;;0.52;0.35;;;9.00;99.90;;;;;;4981844;28;20026;-70
2024/02/25 10:17:55;;;;;;;0.90;0.50;;;9.00;99.90;;;;;;4972959;28;20034;-72
2024/02/25 10:20:21;;;;;;;0.50;0.30;;;9.10;99.90;;;;;;4975917;28;20018;-71
2024/02/25 10:22:46;;;;;;;1.67;0.63;;;9.20;99.90;;;;;;4976397;28;20058;-71
2024/02/25 10:25:12;;;;;;;2.53;0.50;;;9.20;99.90;;;;;;4973711;28;20030;-72
2024/02/25 10:27:38;;;;;;;2.05;0.68;;;9.10;99.90;;;;;;4979986;28;20038;-70
2024/02/25 10:30:06;;;;;;;4.75;0.52;;;9.00;99.90;;;;;;4972730;28;20035;-71
2024/02/25 10:32:41;;;;;;;0.38;0.28;;;9.00;99.90;;;;;;4989622;28;20034;-72
2024/02/25 10:35:09;;;;;;;3.03;0.50;;;9.10;99.90;;;;;;4974050;28;20078;-72
2024/02/25 10:37:35;;;;;;;0.40;0.30;;;9.10;99.90;;;;;;4988679;28;20042;-72
2024/02/25 10:40:05;;;;;;;0.00;0.00;;;9.10;99.90;;;;;;4987910;28;20031;-71
2024/02/25 10:42:43;;;;;;;3.00;0.20;;;9.00;99.90;;;;;;4981028;28;20023;-71
2024/02/25 10:45:11;;;;;;;0.20;0.20;;;8.80;99.90;;;;;;4988667;28;20550;-71
2024/02/25 10:47:38;;;;;;;0.10;0.10;;;8.80;99.90;;;;;;4980424;28;20122;-71
2024/02/25 10:50:05;;;;;;;0.20;0.17;;;8.90;99.90;;;;;;4974987;28;20042;-71
2024/02/25 10:52:32;;;;;;;0.80;0.35;;;9.10;99.90;;;;;;4989026;28;20034;-71
2024/02/25 10:54:59;;;;;;;1.02;0.30;;;9.30;99.90;;;;;;4959704;28;20061;-71
2024/02/25 10:57:25;;;;;;;0.10;0.10;;;9.70;99.90;;;;;;4982052;28;20026;-71
2024/02/25 10:59:51;;;;;;;0.10;0.10;;;10.20;99.90;;;;;;4971274;28;20045;-71
2024/02/25 11:02:20;;;;;;;1.15;0.40;;;10.70;99.90;;;;;;4980450;28;20067;-71
2024/02/25 11:04:47;;;;;;;0.47;0.35;;;10.90;99.90;;;;;;4986030;28;20057;-71
2024/02/25 11:07:14;;;;;;;0.10;0.10;;;10.80;99.90;;;;;;4974601;28;20554;-71
2024/02/25 11:09:43;;;;;;;0.17;0.13;;;11.10;99.90;;;;;;4979039;28;20096;-71
2024/02/25 11:12:21;;;;;;;0.90;0.30;;;10.90;99.90;;;;;;4974371;28;20376;-71
2024/02/25 11:15:07;;;;;;;1.25;0.50;;;11.30;99.90;;;;;;4977255;28;20035;-72
2024/02/25 11:17:40;;;;;;;0.00;0.00;;;11.00;99.90;;;;;;4980030;28;20039;-71
2024/02/25 11:20:11;;;;;;;5.28;0.35;;;10.60;99.90;;;;;;4975531;28;20096;-71
2024/02/25 11:22:50;;;;;;;0.75;0.32;;;10.20;99.90;;;;;;4982578;28;20023;-71
2024/02/25 11:25:34;;;;;;;0.98;0.30;;;10.10;99.90;;;;;;4976141;28;20023;-71
2024/02/25 11:28:04;;;;;;;0.55;0.30;;;10.40;99.90;;;;;;4973064;28;20487;-71
2024/02/25 11:30:45;;;;;;;0.00;0.00;;;10.20;99.90;;;;;;4976051;28;20118;-70
2024/02/25 11:33:27;;;;;;;1.45;0.63;;;9.90;99.90;;;;;;4972913;28;20043;-71
2024/02/25 11:35:57;;;;;;;0.77;0.35;;;10.00;99.90;;;;;;4970378;28;20026;-73
2024/02/25 11:38:28;;;;;;;0.00;0.00;;;10.60;99.90;;;;;;4966798;28;20520;-71
2024/02/25 11:40:57;;;;;;;1.15;0.15;;;10.50;99.90;;;;;;4969441;28;20110;-73
2024/02/25 11:43:25;;;;;;;0.05;0.05;;;10.60;99.90;;;;;;4966040;28;20038;-72
2024/02/25 11:45:50;;;;;;;0.85;0.55;;;10.50;99.90;;;;;;4969100;28;20041;-71
2024/02/25 11:48:16;;;;;;;1.60;0.35;;;10.40;99.90;;;;;;4977852;28;20113;-72
2024/02/25 11:50:43;;;;;;;2.67;1.00;;;10.50;99.90;;;;;;4980882;28;20521;-71
2024/02/25 11:53:09;;;;;;;2.00;0.10;;;10.70;99.90;;;;;;4976570;28;20038;-71
2024/02/25 11:55:36;;;;;;;0.52;0.20;;;11.10;99.90;;;;;;4977576;28;20042;-72
2024/02/25 11:58:02;;;;;;;0.30;0.20;;;11.20;99.90;;;;;;4975540;28;20038;-71
2024/02/25 12:00:29;;;;;;;0.10;0.10;;;11.10;99.90;;;;;;4980717;28;20034;-71
2024/02/25 12:02:57;;;;;;;3.63;0.40;;;11.50;99.70;;;;;;4974526;28;20041;-72
2024/02/25 12:05:24;;;;;;;0.10;0.10;;;11.00;99.60;;;;;;4976880;28;20074;-71
2024/02/25 12:07:58;;;;;;;0.32;0.28;;;10.70;99.00;;;;;;4971848;28;20030;-72
2024/02/25 12:10:25;;;;;;;3.17;0.28;;;10.80;99.60;;;;;;4959923;28;20058;-71
2024/02/25 12:12:53;;;;;;;3.25;0.20;;;10.40;99.20;;;;;;4990626;28;20031;-71
2024/02/25 12:15:20;;;;;;;0.20;0.10;;;10.20;99.90;;;;;;4984609;28;20034;-71
2024/02/25 12:17:46;;;;;;;0.10;0.10;;;10.10;99.90;;;;;;4974465;28;20101;-71
2024/02/25 12:20:17;;;;;;;0.30;0.20;;;10.20;99.90;;;;;;4969882;28;20049;-72
2024/02/25 12:22:44;;;;;;;0.20;0.20;;;10.20;99.90;;;;;;4978069;28;20019;-72
2024/02/25 12:25:17;;;;;;;0.32;0.22;;;10.10;99.90;;;;;;4968330;28;20514;-71
2024/02/25 12:27:46;;;;;;;0.68;0.30;;;10.20;99.90;;;;;;4981213;28;20023;-72
2024/02/25 12:30:13;;;;;;;0.00;0.00;;;10.50;99.90;;;;;;4969470;28;20074;-72
2024/02/25 12:32:39;;;;;;;0.10;0.10;;;10.70;99.90;;;;;;4973101;28;20042;-72
2024/02/25 12:35:08;;;;;;;0.38;0.32;;;10.70;99.90;;;;;;4953840;28;20039;-71
2024/02/25 12:37:35;;;;;;;0.10;0.10;;;10.90;99.90;;;;;;4979227;28;20019;-71
2024/02/25 12:40:03;;;;;;;3.22;0.93;;;11.20;98.80;;;;;;4988200;28;20031;-71
2024/02/25 12:42:31;;;;;;;2.72;0.55;;;11.30;98.90;;;;;;4979690;28;20054;-71
2024/02/25 12:44:57;;;;;;;0.00;0.00;;;11.30;99.20;;;;;;4967764;28;20632;-72
2024/02/25 12:47:23;;;;;;;0.20;0.20;;;11.40;97.00;;;;;;4980759;28;20027;-71
2024/02/25 12:49:49;;;;;;;0.10;0.10;;;10.90;97.70;;;;;;4971803;28;20039;-71
2024/02/25 12:52:16;;;;;;;0.20;0.20;;;11.00;98.30;;;;;;4988377;28;20030;-72
2024/02/25 12:54:43;;;;;;;0.03;0.03;;;11.20;97.80;;;;;;4969247;28;20035;-72
2024/02/25 12:57:10;;;;;;;0.45;0.30;;;11.70;96.50;;;;;;4986438;28;20523;-71